sensor_id;sensor_type;location;lat;lon;timestamp;P1;durP1;ratioP1;P2;durP2;ratioP2
31298;SDS011;17927;52.350;13.402;2024-02-16T00:00:03;9.35;;;8.45;;
31298;SDS011;17927;52.350;13.402;2024-02-16T00:02:28;9.80;;;8.05;;
31298;SDS011;17927;52.350;13.402;2024-02-16T00:04:53;11.88;;;8.40;;
31298;SDS011;17927;52.350;13.402;2024-02-16T00:07:19;10.73;;;9.05;;
31298;SDS011;17927;52.350;13.402;2024-02-16T00:09:44;11.02;;;8.98;;
31298;SDS011;17927;52.350;13.402;2024-02-16T00:12:09;9.90;;;8.93;;
31298;SDS011;17927;52.350;13.402;2024-02-16T00:14:34;9.85;;;8.85;;
31298;SDS011;17927;52.350;13.402;2024-02-16T00:17:00;11.45;;;8.52;;
31298;SDS011;17927;52.350;13.402;2024-02-16T00:19:25;12.93;;;9.23;;
31298;SDS011;17927;52.350;13.402;2024-02-16T00:21:51;11.27;;;8.65;;
31298;SDS011;17927;52.350;13.402;2024-02-16T00:24:17;13.02;;;9.32;;
31298;SDS011;17927;52.350;13.402;2024-02-16T00:26:42;11.45;;;9.60;;
31298;SDS011;17927;52.350;13.402;2024-02-16T00:29:10;9.98;;;8.80;;
31298;SDS011;17927;52.350;13.402;2024-02-16T00:31:35;9.90;;;8.80;;
31298;SDS011;17927;52.350;13.402;2024-02-16T00:34:00;10.98;;;9.35;;
31298;SDS011;17927;52.350;13.402;2024-02-16T00:36:26;11.40;;;9.52;;
31298;SDS011;17927;52.350;13.402;2024-02-16T00:38:52;11.43;;;9.45;;
31298;SDS011;17927;52.350;13.402;2024-02-16T00:41:21;11.25;;;8.98;;
31298;SDS011;17927;52.350;13.402;2024-02-16T00:43:47;16.00;;;8.98;;
31298;SDS011;17927;52.350;13.402;2024-02-16T00:46:13;11.60;;;9.18;;
31298;SDS011;17927;52.350;13.402;2024-02-16T00:48:38;12.77;;;9.70;;
31298;SDS011;17927;52.350;13.402;2024-02-16T00:51:03;9.00;;;8.20;;
31298;SDS011;17927;52.350;13.402;2024-02-16T00:53:29;9.75;;;8.77;;
31298;SDS011;17927;52.350;13.402;2024-02-16T00:55:54;9.73;;;8.55;;
31298;SDS011;17927;52.350;13.402;2024-02-16T00:58:19;12.48;;;9.25;;
31298;SDS011;17927;52.350;13.402;2024-02-16T01:00:44;11.02;;;9.45;;
31298;SDS011;17927;52.350;13.402;2024-02-16T01:03:10;12.98;;;9.25;;
31298;SDS011;17927;52.350;13.402;2024-02-16T01:05:35;10.90;;;9.38;;
31298;SDS011;17927;52.350;13.402;2024-02-16T01:08:00;10.02;;;9.02;;
31298;SDS011;17927;52.350;13.402;2024-02-16T01:10:26;10.63;;;9.13;;
31298;SDS011;17927;52.350;13.402;2024-02-16T01:12:51;11.23;;;9.60;;
31298;SDS011;17927;52.350;13.402;2024-02-16T01:15:17;9.73;;;8.75;;
31298;SDS011;17927;52.350;13.402;2024-02-16T01:17:43;16.80;;;11.90;;
31298;SDS011;17927;52.350;13.402;2024-02-16T01:20:08;11.77;;;9.93;;
31298;SDS011;17927;52.350;13.402;2024-02-16T01:22:37;11.05;;;9.85;;
31298;SDS011;17927;52.350;13.402;2024-02-16T01:25:02;13.88;;;10.60;;
31298;SDS011;17927;52.350;13.402;2024-02-16T01:27:28;13.63;;;10.35;;
31298;SDS011;17927;52.350;13.402;2024-02-16T01:29:53;12.63;;;9.60;;
31298;SDS011;17927;52.350;13.402;2024-02-16T01:32:18;14.48;;;10.88;;
31298;SDS011;17927;52.350;13.402;2024-02-16T01:34:44;12.50;;;10.77;;
31298;SDS011;17927;52.350;13.402;2024-02-16T01:37:11;11.70;;;10.60;;
31298;SDS011;17927;52.350;13.402;2024-02-16T01:39:37;13.15;;;11.25;;
31298;SDS011;17927;52.350;13.402;2024-02-16T01:42:02;11.75;;;10.50;;
31298;SDS011;17927;52.350;13.402;2024-02-16T01:44:27;14.95;;;11.35;;
31298;SDS011;17927;52.350;13.402;2024-02-16T01:46:52;18.67;;;12.05;;
31298;SDS011;17927;52.350;13.402;2024-02-16T01:49:18;13.45;;;12.05;;
31298;SDS011;17927;52.350;13.402;2024-02-16T01:51:43;14.25;;;11.43;;
31298;SDS011;17927;52.350;13.402;2024-02-16T01:54:10;15.30;;;11.00;;
31298;SDS011;17927;52.350;13.402;2024-02-16T01:56:36;14.43;;;11.68;;
31298;SDS011;17927;52.350;13.402;2024-02-16T01:59:02;12.93;;;11.25;;
31298;SDS011;17927;52.350;13.402;2024-02-16T02:01:27;13.75;;;11.60;;
31298;SDS011;17927;52.350;13.402;2024-02-16T02:03:52;14.57;;;11.75;;
31298;SDS011;17927;52.350;13.402;2024-02-16T02:06:17;14.00;;;11.88;;
31298;SDS011;17927;52.350;13.402;2024-02-16T02:08:43;13.38;;;10.80;;
31298;SDS011;17927;52.350;13.402;2024-02-16T02:11:08;17.42;;;12.75;;
31298;SDS011;17927;52.350;13.402;2024-02-16T02:13:34;14.05;;;11.38;;
31298;SDS011;17927;52.350;13.402;2024-02-16T02:15:59;16.85;;;11.75;;
31298;SDS011;17927;52.350;13.402;2024-02-16T02:18:28;12.48;;;10.82;;
31298;SDS011;17927;52.350;13.402;2024-02-16T02:20:53;15.82;;;11.50;;
31298;SDS011;17927;52.350;13.402;2024-02-16T02:23:19;13.55;;;11.25;;
31298;SDS011;17927;52.350;13.402;2024-02-16T02:25:44;13.15;;;11.20;;
31298;SDS011;17927;52.350;13.402;2024-02-16T02:28:10;13.23;;;11.82;;
31298;SDS011;17927;52.350;13.402;2024-02-16T02:30:35;13.55;;;11.38;;
31298;SDS011;17927;52.350;13.402;2024-02-16T02:33:01;17.50;;;11.68;;
31298;SDS011;17927;52.350;13.402;2024-02-16T02:35:26;13.30;;;11.38;;
31298;SDS011;17927;52.350;13.402;2024-02-16T02:37:52;14.90;;;11.88;;
31298;SDS011;17927;52.350;13.402;2024-02-16T02:40:17;15.70;;;12.05;;
31298;SDS011;17927;52.350;13.402;2024-02-16T02:42:43;14.13;;;11.55;;
31298;SDS011;17927;52.350;13.402;2024-02-16T02:45:08;16.33;;;12.35;;
31298;SDS011;17927;52.350;13.402;2024-02-16T02:47:34;19.67;;;11.80;;
31298;SDS011;17927;52.350;13.402;2024-02-16T02:49:59;13.00;;;11.35;;
31298;SDS011;17927;52.350;13.402;2024-02-16T02:52:24;15.77;;;12.38;;
31298;SDS011;17927;52.350;13.402;2024-02-16T02:54:50;19.08;;;12.68;;
31298;SDS011;17927;52.350;13.402;2024-02-16T02:57:15;15.20;;;12.40;;
31298;SDS011;17927;52.350;13.402;2024-02-16T02:59:40;15.45;;;11.57;;
31298;SDS011;17927;52.350;13.402;2024-02-16T03:02:05;14.98;;;12.13;;
31298;SDS011;17927;52.350;13.402;2024-02-16T03:04:31;13.77;;;11.68;;
31298;SDS011;17927;52.350;13.402;2024-02-16T03:06:56;14.05;;;12.18;;
31298;SDS011;17927;52.350;13.402;2024-02-16T03:09:21;15.73;;;11.38;;
31298;SDS011;17927;52.350;13.402;2024-02-16T03:11:47;15.27;;;11.05;;
31298;SDS011;17927;52.350;13.402;2024-02-16T03:14:13;15.27;;;11.52;;
31298;SDS011;17927;52.350;13.402;2024-02-16T03:16:38;15.02;;;12.27;;
31298;SDS011;17927;52.350;13.402;2024-02-16T03:19:05;13.25;;;11.60;;
31298;SDS011;17927;52.350;13.402;2024-02-16T03:21:31;14.50;;;11.02;;
31298;SDS011;17927;52.350;13.402;2024-02-16T03:23:57;13.98;;;11.82;;
31298;SDS011;17927;52.350;13.402;2024-02-16T03:26:23;16.73;;;11.45;;
31298;SDS011;17927;52.350;13.402;2024-02-16T03:28:48;13.60;;;11.60;;
31298;SDS011;17927;52.350;13.402;2024-02-16T03:31:17;14.45;;;11.38;;
31298;SDS011;17927;52.350;13.402;2024-02-16T03:33:46;16.80;;;11.32;;
31298;SDS011;17927;52.350;13.402;2024-02-16T03:36:12;12.85;;;11.07;;
31298;SDS011;17927;52.350;13.402;2024-02-16T03:38:40;12.85;;;10.45;;
31298;SDS011;17927;52.350;13.402;2024-02-16T03:41:07;12.77;;;11.23;;
31298;SDS011;17927;52.350;13.402;2024-02-16T03:43:33;13.40;;;10.00;;
31298;SDS011;17927;52.350;13.402;2024-02-16T03:45:58;15.10;;;11.10;;
31298;SDS011;17927;52.350;13.402;2024-02-16T03:48:23;11.90;;;10.45;;
31298;SDS011;17927;52.350;13.402;2024-02-16T03:50:48;14.73;;;11.13;;
31298;SDS011;17927;52.350;13.402;2024-02-16T03:53:14;16.00;;;11.35;;
31298;SDS011;17927;52.350;13.402;2024-02-16T03:55:39;13.45;;;10.43;;
31298;SDS011;17927;52.350;13.402;2024-02-16T03:58:04;12.98;;;10.50;;
31298;SDS011;17927;52.350;13.402;2024-02-16T04:00:29;12.55;;;10.55;;
31298;SDS011;17927;52.350;13.402;2024-02-16T04:02:55;11.98;;;10.48;;
31298;SDS011;17927;52.350;13.402;2024-02-16T04:05:20;12.45;;;10.65;;
31298;SDS011;17927;52.350;13.402;2024-02-16T04:07:45;15.60;;;10.77;;
31298;SDS011;17927;52.350;13.402;2024-02-16T04:10:10;12.18;;;10.63;;
31298;SDS011;17927;52.350;13.402;2024-02-16T04:12:36;13.40;;;10.32;;
31298;SDS011;17927;52.350;13.402;2024-02-16T04:15:01;16.17;;;10.30;;
31298;SDS011;17927;52.350;13.402;2024-02-16T04:17:27;15.38;;;10.75;;
31298;SDS011;17927;52.350;13.402;2024-02-16T04:19:52;15.57;;;10.88;;
31298;SDS011;17927;52.350;13.402;2024-02-16T04:22:17;13.65;;;10.25;;
31298;SDS011;17927;52.350;13.402;2024-02-16T04:24:42;15.80;;;10.93;;
31298;SDS011;17927;52.350;13.402;2024-02-16T04:27:08;15.27;;;11.18;;
31298;SDS011;17927;52.350;13.402;2024-02-16T04:29:33;12.70;;;10.55;;
31298;SDS011;17927;52.350;13.402;2024-02-16T04:31:58;15.40;;;10.70;;
31298;SDS011;17927;52.350;13.402;2024-02-16T04:34:23;13.70;;;10.60;;
31298;SDS011;17927;52.350;13.402;2024-02-16T04:36:49;14.20;;;10.48;;
31298;SDS011;17927;52.350;13.402;2024-02-16T04:39:14;26.08;;;19.17;;
31298;SDS011;17927;52.350;13.402;2024-02-16T04:41:40;16.67;;;12.15;;
31298;SDS011;17927;52.350;13.402;2024-02-16T04:44:05;13.95;;;11.98;;
31298;SDS011;17927;52.350;13.402;2024-02-16T04:46:30;15.15;;;11.68;;
31298;SDS011;17927;52.350;13.402;2024-02-16T04:48:55;13.60;;;11.15;;
31298;SDS011;17927;52.350;13.402;2024-02-16T04:51:21;13.50;;;9.88;;
31298;SDS011;17927;52.350;13.402;2024-02-16T04:53:46;13.50;;;10.45;;
31298;SDS011;17927;52.350;13.402;2024-02-16T04:56:11;13.27;;;10.90;;
31298;SDS011;17927;52.350;13.402;2024-02-16T04:58:39;14.00;;;11.70;;
31298;SDS011;17927;52.350;13.402;2024-02-16T05:01:06;13.80;;;11.20;;
31298;SDS011;17927;52.350;13.402;2024-02-16T05:03:31;16.63;;;12.52;;
31298;SDS011;17927;52.350;13.402;2024-02-16T05:05:57;13.18;;;10.68;;
31298;SDS011;17927;52.350;13.402;2024-02-16T05:08:22;10.90;;;9.82;;
31298;SDS011;17927;52.350;13.402;2024-02-16T05:10:48;13.98;;;10.52;;
31298;SDS011;17927;52.350;13.402;2024-02-16T05:13:13;15.60;;;10.57;;
31298;SDS011;17927;52.350;13.402;2024-02-16T05:15:39;10.38;;;9.20;;
31298;SDS011;17927;52.350;13.402;2024-02-16T05:18:04;12.82;;;10.00;;
31298;SDS011;17927;52.350;13.402;2024-02-16T05:20:29;12.38;;;9.38;;
31298;SDS011;17927;52.350;13.402;2024-02-16T05:22:55;11.80;;;10.25;;
31298;SDS011;17927;52.350;13.402;2024-02-16T05:25:21;11.70;;;9.88;;
31298;SDS011;17927;52.350;13.402;2024-02-16T05:27:46;12.75;;;10.23;;
31298;SDS011;17927;52.350;13.402;2024-02-16T05:30:15;13.05;;;10.13;;
31298;SDS011;17927;52.350;13.402;2024-02-16T05:32:41;15.38;;;10.50;;
31298;SDS011;17927;52.350;13.402;2024-02-16T05:35:07;10.80;;;9.55;;
31298;SDS011;17927;52.350;13.402;2024-02-16T05:37:40;14.43;;;10.02;;
31298;SDS011;17927;52.350;13.402;2024-02-16T05:40:09;10.80;;;9.70;;
31298;SDS011;17927;52.350;13.402;2024-02-16T05:42:46;10.43;;;9.18;;
31298;SDS011;17927;52.350;13.402;2024-02-16T05:45:12;12.85;;;9.85;;
31298;SDS011;17927;52.350;13.402;2024-02-16T05:47:37;10.15;;;9.10;;
31298;SDS011;17927;52.350;13.402;2024-02-16T05:50:03;10.80;;;9.15;;
31298;SDS011;17927;52.350;13.402;2024-02-16T05:52:29;13.88;;;9.90;;
31298;SDS011;17927;52.350;13.402;2024-02-16T05:54:55;13.95;;;10.27;;
31298;SDS011;17927;52.350;13.402;2024-02-16T05:57:20;13.00;;;9.38;;
31298;SDS011;17927;52.350;13.402;2024-02-16T05:59:46;10.43;;;9.10;;
31298;SDS011;17927;52.350;13.402;2024-02-16T06:02:11;9.63;;;8.63;;
31298;SDS011;17927;52.350;13.402;2024-02-16T06:04:37;12.52;;;9.18;;
31298;SDS011;17927;52.350;13.402;2024-02-16T06:07:03;12.98;;;9.98;;
31298;SDS011;17927;52.350;13.402;2024-02-16T06:09:29;12.18;;;9.60;;
31298;SDS011;17927;52.350;13.402;2024-02-16T06:11:59;10.30;;;9.20;;
31298;SDS011;17927;52.350;13.402;2024-02-16T06:14:25;12.60;;;9.60;;
31298;SDS011;17927;52.350;13.402;2024-02-16T06:16:50;11.00;;;8.73;;
31298;SDS011;17927;52.350;13.402;2024-02-16T06:19:16;9.68;;;8.75;;
31298;SDS011;17927;52.350;13.402;2024-02-16T06:21:41;11.23;;;8.88;;
31298;SDS011;17927;52.350;13.402;2024-02-16T06:24:06;12.90;;;10.00;;
31298;SDS011;17927;52.350;13.402;2024-02-16T06:26:32;12.13;;;9.05;;
31298;SDS011;17927;52.350;13.402;2024-02-16T06:28:58;10.85;;;9.20;;
31298;SDS011;17927;52.350;13.402;2024-02-16T06:34:45;9.43;;;8.45;;
31298;SDS011;17927;52.350;13.402;2024-02-16T06:40:04;10.38;;;8.55;;
31298;SDS011;17927;52.350;13.402;2024-02-16T06:42:30;11.38;;;8.85;;
31298;SDS011;17927;52.350;13.402;2024-02-16T06:44:56;10.88;;;9.18;;
31298;SDS011;17927;52.350;13.402;2024-02-16T06:47:21;12.68;;;9.10;;
31298;SDS011;17927;52.350;13.402;2024-02-16T06:49:48;10.98;;;9.35;;
31298;SDS011;17927;52.350;13.402;2024-02-16T06:52:13;10.20;;;8.25;;
31298;SDS011;17927;52.350;13.402;2024-02-16T06:54:39;8.90;;;8.10;;
31298;SDS011;17927;52.350;13.402;2024-02-16T06:57:04;16.08;;;9.65;;
31298;SDS011;17927;52.350;13.402;2024-02-16T06:59:30;10.82;;;9.02;;
31298;SDS011;17927;52.350;13.402;2024-02-16T07:01:56;9.48;;;8.48;;
31298;SDS011;17927;52.350;13.402;2024-02-16T07:04:21;12.85;;;9.60;;
31298;SDS011;17927;52.350;13.402;2024-02-16T07:06:46;12.63;;;8.82;;
31298;SDS011;17927;52.350;13.402;2024-02-16T07:09:11;11.38;;;9.32;;
31298;SDS011;17927;52.350;13.402;2024-02-16T07:11:40;11.18;;;9.30;;
31298;SDS011;17927;52.350;13.402;2024-02-16T07:14:05;11.82;;;9.20;;
31298;SDS011;17927;52.350;13.402;2024-02-16T07:16:31;11.75;;;8.15;;
31298;SDS011;17927;52.350;13.402;2024-02-16T07:18:57;14.65;;;9.50;;
31298;SDS011;17927;52.350;13.402;2024-02-16T07:21:22;11.63;;;9.20;;
31298;SDS011;17927;52.350;13.402;2024-02-16T07:23:48;13.20;;;9.70;;
31298;SDS011;17927;52.350;13.402;2024-02-16T07:26:13;13.82;;;10.75;;
31298;SDS011;17927;52.350;13.402;2024-02-16T07:28:39;12.57;;;10.00;;
31298;SDS011;17927;52.350;13.402;2024-02-16T07:31:05;10.50;;;8.95;;
31298;SDS011;17927;52.350;13.402;2024-02-16T07:33:30;10.20;;;8.75;;
31298;SDS011;17927;52.350;13.402;2024-02-16T07:35:56;10.10;;;9.05;;
31298;SDS011;17927;52.350;13.402;2024-02-16T07:38:21;11.90;;;9.57;;
31298;SDS011;17927;52.350;13.402;2024-02-16T07:40:47;12.07;;;9.25;;
31298;SDS011;17927;52.350;13.402;2024-02-16T07:43:12;14.10;;;9.02;;
31298;SDS011;17927;52.350;13.402;2024-02-16T07:45:38;11.45;;;9.10;;
31298;SDS011;17927;52.350;13.402;2024-02-16T07:48:04;11.48;;;9.07;;
31298;SDS011;17927;52.350;13.402;2024-02-16T07:50:31;11.20;;;7.95;;
31298;SDS011;17927;52.350;13.402;2024-02-16T07:52:57;10.88;;;9.27;;
31298;SDS011;17927;52.350;13.402;2024-02-16T07:55:22;12.65;;;9.25;;
31298;SDS011;17927;52.350;13.402;2024-02-16T07:57:49;11.15;;;8.95;;
31298;SDS011;17927;52.350;13.402;2024-02-16T08:00:14;12.43;;;8.55;;
31298;SDS011;17927;52.350;13.402;2024-02-16T08:02:41;11.00;;;8.68;;
31298;SDS011;17927;52.350;13.402;2024-02-16T08:05:08;12.77;;;8.98;;
31298;SDS011;17927;52.350;13.402;2024-02-16T08:07:37;11.27;;;8.13;;
31298;SDS011;17927;52.350;13.402;2024-02-16T08:10:09;9.52;;;8.52;;
31298;SDS011;17927;52.350;13.402;2024-02-16T08:12:35;11.77;;;9.57;;
31298;SDS011;17927;52.350;13.402;2024-02-16T08:15:01;9.32;;;8.38;;
31298;SDS011;17927;52.350;13.402;2024-02-16T08:17:28;11.10;;;7.93;;
31298;SDS011;17927;52.350;13.402;2024-02-16T08:19:54;8.75;;;7.85;;
31298;SDS011;17927;52.350;13.402;2024-02-16T08:22:20;10.68;;;8.13;;
31298;SDS011;17927;52.350;13.402;2024-02-16T08:24:45;8.98;;;7.85;;
31298;SDS011;17927;52.350;13.402;2024-02-16T08:27:11;8.02;;;6.55;;
31298;SDS011;17927;52.350;13.402;2024-02-16T08:29:37;9.05;;;8.13;;
31298;SDS011;17927;52.350;13.402;2024-02-16T08:32:03;7.28;;;6.57;;
31298;SDS011;17927;52.350;13.402;2024-02-16T08:34:28;10.20;;;7.47;;
31298;SDS011;17927;52.350;13.402;2024-02-16T08:36:54;10.10;;;7.00;;
31298;SDS011;17927;52.350;13.402;2024-02-16T08:39:20;8.30;;;6.70;;
31298;SDS011;17927;52.350;13.402;2024-02-16T08:41:45;8.88;;;7.05;;
31298;SDS011;17927;52.350;13.402;2024-02-16T08:44:13;7.15;;;6.45;;
31298;SDS011;17927;52.350;13.402;2024-02-16T08:46:38;9.73;;;6.38;;
31298;SDS011;17927;52.350;13.402;2024-02-16T08:49:05;7.90;;;6.40;;
31298;SDS011;17927;52.350;13.402;2024-02-16T08:51:33;6.93;;;6.22;;
31298;SDS011;17927;52.350;13.402;2024-02-16T08:53:59;5.90;;;5.40;;
31298;SDS011;17927;52.350;13.402;2024-02-16T08:56:24;7.55;;;6.38;;
31298;SDS011;17927;52.350;13.402;2024-02-16T08:58:50;12.30;;;7.07;;
31298;SDS011;17927;52.350;13.402;2024-02-16T09:01:15;7.38;;;6.60;;
31298;SDS011;17927;52.350;13.402;2024-02-16T09:03:41;9.35;;;6.63;;
31298;SDS011;17927;52.350;13.402;2024-02-16T09:06:07;7.70;;;5.95;;
31298;SDS011;17927;52.350;13.402;2024-02-16T09:08:32;5.85;;;5.28;;
31298;SDS011;17927;52.350;13.402;2024-02-16T09:11:00;5.70;;;5.20;;
31298;SDS011;17927;52.350;13.402;2024-02-16T09:13:25;7.88;;;6.40;;
31298;SDS011;17927;52.350;13.402;2024-02-16T09:15:50;5.32;;;4.82;;
31298;SDS011;17927;52.350;13.402;2024-02-16T09:18:16;6.00;;;5.40;;
31298;SDS011;17927;52.350;13.402;2024-02-16T09:20:42;6.80;;;4.75;;
31298;SDS011;17927;52.350;13.402;2024-02-16T09:23:07;6.28;;;5.68;;
31298;SDS011;17927;52.350;13.402;2024-02-16T09:25:33;4.97;;;4.45;;
31298;SDS011;17927;52.350;13.402;2024-02-16T09:27:59;5.07;;;4.65;;
31298;SDS011;17927;52.350;13.402;2024-02-16T09:30:24;5.25;;;4.40;;
31298;SDS011;17927;52.350;13.402;2024-02-16T09:32:50;5.80;;;4.68;;
31298;SDS011;17927;52.350;13.402;2024-02-16T09:35:15;5.07;;;4.57;;
31298;SDS011;17927;52.350;13.402;2024-02-16T09:37:40;5.07;;;4.57;;
31298;SDS011;17927;52.350;13.402;2024-02-16T09:40:06;4.55;;;4.20;;
31298;SDS011;17927;52.350;13.402;2024-02-16T09:42:33;4.78;;;4.38;;
31298;SDS011;17927;52.350;13.402;2024-02-16T09:45:03;4.53;;;4.07;;
31298;SDS011;17927;52.350;13.402;2024-02-16T09:47:30;5.18;;;4.07;;
31298;SDS011;17927;52.350;13.402;2024-02-16T09:49:57;4.30;;;4.00;;
31298;SDS011;17927;52.350;13.402;2024-02-16T09:52:23;4.63;;;4.22;;
31298;SDS011;17927;52.350;13.402;2024-02-16T09:54:49;4.82;;;4.35;;
31298;SDS011;17927;52.350;13.402;2024-02-16T09:57:16;4.43;;;4.03;;
31298;SDS011;17927;52.350;13.402;2024-02-16T09:59:41;4.43;;;4.07;;
31298;SDS011;17927;52.350;13.402;2024-02-16T10:02:07;4.43;;;4.03;;
31298;SDS011;17927;52.350;13.402;2024-02-16T10:04:33;4.47;;;4.07;;
31298;SDS011;17927;52.350;13.402;2024-02-16T10:06:58;6.53;;;4.55;;
31298;SDS011;17927;52.350;13.402;2024-02-16T10:09:24;5.18;;;3.92;;
31298;SDS011;17927;52.350;13.402;2024-02-16T10:11:50;6.57;;;4.25;;
31298;SDS011;17927;52.350;13.402;2024-02-16T10:14:16;4.00;;;3.60;;
31298;SDS011;17927;52.350;13.402;2024-02-16T10:16:42;4.85;;;4.38;;
31298;SDS011;17927;52.350;13.402;2024-02-16T10:19:07;4.65;;;3.75;;
31298;SDS011;17927;52.350;13.402;2024-02-16T10:21:35;4.72;;;4.32;;
31298;SDS011;17927;52.350;13.402;2024-02-16T10:24:07;4.43;;;4.10;;
31298;SDS011;17927;52.350;13.402;2024-02-16T10:26:34;4.47;;;4.07;;
31298;SDS011;17927;52.350;13.402;2024-02-16T10:29:02;4.60;;;4.20;;
31298;SDS011;17927;52.350;13.402;2024-02-16T10:31:28;4.50;;;4.07;;
31298;SDS011;17927;52.350;13.402;2024-02-16T10:33:59;6.38;;;4.47;;
31298;SDS011;17927;52.350;13.402;2024-02-16T10:36:27;4.63;;;4.22;;
31298;SDS011;17927;52.350;13.402;2024-02-16T10:38:53;4.00;;;3.70;;
31298;SDS011;17927;52.350;13.402;2024-02-16T10:41:21;4.53;;;3.80;;
31298;SDS011;17927;52.350;13.402;2024-02-16T10:43:51;4.00;;;3.55;;
31298;SDS011;17927;52.350;13.402;2024-02-16T10:46:18;4.32;;;3.92;;
31298;SDS011;17927;52.350;13.402;2024-02-16T10:48:43;4.38;;;3.97;;
31298;SDS011;17927;52.350;13.402;2024-02-16T10:51:08;4.25;;;3.85;;
31298;SDS011;17927;52.350;13.402;2024-02-16T10:53:35;4.15;;;3.75;;
31298;SDS011;17927;52.350;13.402;2024-02-16T10:56:01;4.03;;;3.65;;
31298;SDS011;17927;52.350;13.402;2024-02-16T10:58:26;11.50;;;4.40;;
31298;SDS011;17927;52.350;13.402;2024-02-16T11:00:52;4.57;;;4.00;;
31298;SDS011;17927;52.350;13.402;2024-02-16T11:03:25;3.85;;;3.58;;
31298;SDS011;17927;52.350;13.402;2024-02-16T11:05:52;3.58;;;3.28;;
31298;SDS011;17927;52.350;13.402;2024-02-16T11:08:18;4.50;;;3.80;;
31298;SDS011;17927;52.350;13.402;2024-02-16T11:10:58;3.78;;;3.47;;
31298;SDS011;17927;52.350;13.402;2024-02-16T11:13:31;4.25;;;3.80;;
31298;SDS011;17927;52.350;13.402;2024-02-16T11:15:58;3.60;;;3.30;;
31298;SDS011;17927;52.350;13.402;2024-02-16T11:18:25;3.92;;;3.55;;
31298;SDS011;17927;52.350;13.402;2024-02-16T11:20:51;8.02;;;4.80;;
31298;SDS011;17927;52.350;13.402;2024-02-16T11:23:17;4.40;;;3.53;;
31298;SDS011;17927;52.350;13.402;2024-02-16T11:25:49;4.72;;;3.70;;
31298;SDS011;17927;52.350;13.402;2024-02-16T11:28:16;8.90;;;3.67;;
31298;SDS011;17927;52.350;13.402;2024-02-16T11:30:42;4.00;;;3.70;;
31298;SDS011;17927;52.350;13.402;2024-02-16T11:33:10;3.67;;;2.95;;
31298;SDS011;17927;52.350;13.402;2024-02-16T11:35:35;4.03;;;3.30;;
31298;SDS011;17927;52.350;13.402;2024-02-16T11:38:01;2.72;;;2.53;;
31298;SDS011;17927;52.350;13.402;2024-02-16T11:40:26;3.40;;;3.10;;
31298;SDS011;17927;52.350;13.402;2024-02-16T11:42:57;4.30;;;3.47;;
31298;SDS011;17927;52.350;13.402;2024-02-16T11:45:25;3.65;;;3.17;;
31298;SDS011;17927;52.350;13.402;2024-02-16T11:47:51;4.38;;;3.35;;
31298;SDS011;17927;52.350;13.402;2024-02-16T11:50:27;4.15;;;3.67;;
31298;SDS011;17927;52.350;13.402;2024-02-16T11:52:52;3.83;;;3.53;;
31298;SDS011;17927;52.350;13.402;2024-02-16T11:55:17;6.13;;;3.97;;
31298;SDS011;17927;52.350;13.402;2024-02-16T11:57:42;5.95;;;3.53;;
31298;SDS011;17927;52.350;13.402;2024-02-16T12:00:10;3.25;;;2.95;;
31298;SDS011;17927;52.350;13.402;2024-02-16T12:02:39;3.05;;;2.85;;
31298;SDS011;17927;52.350;13.402;2024-02-16T12:05:05;2.97;;;2.78;;
31298;SDS011;17927;52.350;13.402;2024-02-16T12:07:31;4.53;;;3.30;;
31298;SDS011;17927;52.350;13.402;2024-02-16T12:09:58;7.57;;;3.35;;
31298;SDS011;17927;52.350;13.402;2024-02-16T12:12:25;3.85;;;3.55;;
31298;SDS011;17927;52.350;13.402;2024-02-16T12:14:50;5.38;;;3.38;;
31298;SDS011;17927;52.350;13.402;2024-02-16T12:17:17;4.70;;;3.67;;
31298;SDS011;17927;52.350;13.402;2024-02-16T12:19:46;3.75;;;3.45;;
31298;SDS011;17927;52.350;13.402;2024-02-16T12:22:18;3.90;;;3.08;;
31298;SDS011;17927;52.350;13.402;2024-02-16T12:24:45;3.38;;;3.17;;
31298;SDS011;17927;52.350;13.402;2024-02-16T12:27:11;4.10;;;3.70;;
31298;SDS011;17927;52.350;13.402;2024-02-16T12:29:36;4.13;;;3.80;;
31298;SDS011;17927;52.350;13.402;2024-02-16T12:32:01;3.80;;;3.50;;
31298;SDS011;17927;52.350;13.402;2024-02-16T12:34:27;3.97;;;3.67;;
31298;SDS011;17927;52.350;13.402;2024-02-16T12:36:53;3.60;;;3.03;;
31298;SDS011;17927;52.350;13.402;2024-02-16T12:39:18;5.78;;;3.70;;
31298;SDS011;17927;52.350;13.402;2024-02-16T12:41:43;3.95;;;2.90;;
31298;SDS011;17927;52.350;13.402;2024-02-16T12:44:08;3.50;;;3.20;;
31298;SDS011;17927;52.350;13.402;2024-02-16T12:46:34;3.50;;;2.90;;
31298;SDS011;17927;52.350;13.402;2024-02-16T12:48:59;4.05;;;2.88;;
31298;SDS011;17927;52.350;13.402;2024-02-16T12:51:24;2.67;;;2.47;;
31298;SDS011;17927;52.350;13.402;2024-02-16T12:53:50;2.90;;;2.70;;
31298;SDS011;17927;52.350;13.402;2024-02-16T12:56:15;2.83;;;2.53;;
31298;SDS011;17927;52.350;13.402;2024-02-16T12:58:40;2.53;;;2.33;;
31298;SDS011;17927;52.350;13.402;2024-02-16T13:01:06;2.80;;;2.60;;
31298;SDS011;17927;52.350;13.402;2024-02-16T13:03:34;4.53;;;2.58;;
31298;SDS011;17927;52.350;13.402;2024-02-16T13:06:01;3.70;;;2.40;;
31298;SDS011;17927;52.350;13.402;2024-02-16T13:08:27;2.50;;;2.30;;
31298;SDS011;17927;52.350;13.402;2024-02-16T13:10:53;2.92;;;2.53;;
31298;SDS011;17927;52.350;13.402;2024-02-16T13:13:19;2.35;;;2.13;;
31298;SDS011;17927;52.350;13.402;2024-02-16T13:15:45;2.70;;;2.40;;
31298;SDS011;17927;52.350;13.402;2024-02-16T13:18:12;2.53;;;2.33;;
31298;SDS011;17927;52.350;13.402;2024-02-16T13:20:37;3.35;;;1.98;;
31298;SDS011;17927;52.350;13.402;2024-02-16T13:23:02;3.33;;;2.58;;
31298;SDS011;17927;52.350;13.402;2024-02-16T13:25:28;3.15;;;2.58;;
31298;SDS011;17927;52.350;13.402;2024-02-16T13:27:53;2.42;;;2.13;;
31298;SDS011;17927;52.350;13.402;2024-02-16T13:30:18;2.92;;;2.35;;
31298;SDS011;17927;52.350;13.402;2024-02-16T13:32:43;2.72;;;2.53;;
31298;SDS011;17927;52.350;13.402;2024-02-16T13:35:09;2.67;;;2.47;;
31298;SDS011;17927;52.350;13.402;2024-02-16T13:37:34;1.98;;;1.70;;
31298;SDS011;17927;52.350;13.402;2024-02-16T13:40:00;2.63;;;2.42;;
31298;SDS011;17927;52.350;13.402;2024-02-16T13:42:26;2.60;;;2.40;;
31298;SDS011;17927;52.350;13.402;2024-02-16T13:44:51;3.38;;;2.78;;
31298;SDS011;17927;52.350;13.402;2024-02-16T13:47:17;2.15;;;2.05;;
31298;SDS011;17927;52.350;13.402;2024-02-16T13:49:42;2.70;;;2.50;;
31298;SDS011;17927;52.350;13.402;2024-02-16T13:52:07;2.58;;;2.38;;
31298;SDS011;17927;52.350;13.402;2024-02-16T13:54:33;2.75;;;2.53;;
31298;SDS011;17927;52.350;13.402;2024-02-16T13:57:00;2.97;;;2.45;;
31298;SDS011;17927;52.350;13.402;2024-02-16T13:59:25;1.88;;;1.77;;
31298;SDS011;17927;52.350;13.402;2024-02-16T14:01:50;5.30;;;2.08;;
31298;SDS011;17927;52.350;13.402;2024-02-16T14:04:16;2.53;;;2.33;;
31298;SDS011;17927;52.350;13.402;2024-02-16T14:06:41;6.55;;;2.70;;
31298;SDS011;17927;52.350;13.402;2024-02-16T14:09:06;2.67;;;2.25;;
31298;SDS011;17927;52.350;13.402;2024-02-16T14:11:34;1.92;;;1.83;;
31298;SDS011;17927;52.350;13.402;2024-02-16T14:14:02;2.42;;;2.22;;
31298;SDS011;17927;52.350;13.402;2024-02-16T14:16:27;2.15;;;1.98;;
31298;SDS011;17927;52.350;13.402;2024-02-16T14:18:52;2.20;;;2.00;;
31298;SDS011;17927;52.350;13.402;2024-02-16T14:21:18;2.50;;;2.30;;